Pagina principale
METAR-TAF:

METAR-TAF

Aeroporti :

Aeroporto di Palermo-Punta Raisi

Palermo, Italia

latitudine: 38-11N, longitudine: 013-06E, altezza: 21 m

Osservazione

Il bollettino è stato emesso 29 minuti fa, alle 15:50 UTC
Vento 14 kt da ovest
Temperature 29°C
Umidità 74%
Pressione 1010 hPa
Visibilità 10 km o più
Poco nuvoloso ad un'altezza di 3500 ft

METAR: LICJ 131550Z 27014KT 9999 FEW035 29/24 Q1010

Ora: 18:19 (16:19 UTC)

Previsione

Il bollettino è stato emesso 5 ore e 19 minuti fa, alle 11:00 UTC
Previsione valida dal 13 alle 12 UTC al 14 alle 12 UTC
Vento 13 kt da ovest/nord-ovest
Visibilità 10 km o più
Poco nuvoloso ad un'altezza di 3000 ft
Temporaneamente
dal 13 alle 21 UTC al 14 alle 06 UTC
Visibilità: 4000 m
rovesci di pioggia
Evoluzione graduale
dal 14 alle 02 UTC al 14 alle 04 UTC
Vento 8 kt da nord/nord-est

TAF: LICJ 131100Z 1312/1412 29013KT 9999 FEW030 TEMPO 1321/1406 4000 SHRA BECMG 1402/1404 02008KT

Osservazioni e previsioni meteorologiche di più di 4000 aeroporti (messaggi METAR e TAF).

Le stazioni disponibili sono rappresentate dai dischi gialli e rossi sulla carta.

Puntare il mouse per vedere il nome della stazione.

Clicca sopra per visualizzare le osservazioni e previsioni meteorologiche.

Per cambiare la mappa : fare clic sui pulsanti verdi con una croce nera per ingrandire, il pulsante verde con un trattino per diminuire, o sulla freccia verde per le mappe adiacenti.


METAR-TAF: